createdAt,value
2023-04-08T00:00:28.932Z,7.13
2023-04-08T00:02:55.729Z,6.80
2023-04-08T00:05:22.568Z,6.70
2023-04-08T00:07:49.297Z,8.25
2023-04-08T00:10:16.327Z,7.53
2023-04-08T00:12:43.051Z,7.57
2023-04-08T00:15:10.141Z,6.55
2023-04-08T00:17:36.952Z,6.93
2023-04-08T00:20:05.757Z,7.90
2023-04-08T00:22:32.461Z,7.85
2023-04-08T00:24:59.740Z,7.05
2023-04-08T00:27:26.571Z,8.23
2023-04-08T00:29:53.433Z,7.38
2023-04-08T00:32:20.322Z,8.10
2023-04-08T00:34:47.133Z,7.15
2023-04-08T00:37:13.844Z,7.70
2023-04-08T00:39:40.543Z,7.72
2023-04-08T00:42:07.202Z,9.05
2023-04-08T00:44:34.034Z,7.57
2023-04-08T00:47:00.867Z,8.63
2023-04-08T00:49:27.892Z,6.85
2023-04-08T00:51:55.748Z,8.80
2023-04-08T00:54:22.766Z,7.72
2023-04-08T00:56:49.505Z,7.30
2023-04-08T00:59:18.553Z,7.45
2023-04-08T01:01:57.487Z,6.53
2023-04-08T01:04:24.211Z,6.53
2023-04-08T01:07:09.376Z,6.43
2023-04-08T01:09:39.810Z,7.72
2023-04-08T01:12:09.312Z,7.60
2023-04-08T01:14:42.298Z,5.70
2023-04-08T01:17:09.783Z,6.88
2023-04-08T01:19:41.649Z,8.32
2023-04-08T01:22:32.946Z,6.53
2023-04-08T01:25:06.439Z,6.35
2023-04-08T01:27:34.067Z,6.93
2023-04-08T01:30:03.466Z,6.00
2023-04-08T01:32:32.725Z,5.93
2023-04-08T01:35:00.327Z,5.03
2023-04-08T01:37:29.440Z,5.10
2023-04-08T01:39:57.341Z,4.40
2023-04-08T01:42:26.856Z,5.32
2023-04-08T01:44:57.493Z,5.55
2023-04-08T01:47:25.694Z,4.63
2023-04-08T01:49:53.340Z,5.60
2023-04-08T01:52:25.551Z,5.63
2023-04-08T01:54:52.837Z,5.55
2023-04-08T01:57:28.765Z,5.97
2023-04-08T02:00:00.865Z,5.82
2023-04-08T02:02:28.719Z,5.00
2023-04-08T02:04:55.996Z,5.90
2023-04-08T02:07:22.922Z,4.63
2023-04-08T02:09:50.901Z,4.88
2023-04-08T02:12:18.110Z,4.85
2023-04-08T02:14:45.485Z,5.15
2023-04-08T02:17:18.225Z,4.38
2023-04-08T02:19:56.538Z,4.32
2023-04-08T02:22:33.069Z,4.45
2023-04-08T02:25:01.244Z,3.70
2023-04-08T02:27:31.113Z,4.75
2023-04-08T02:29:58.719Z,4.40
2023-04-08T02:32:26.554Z,5.85
2023-04-08T02:34:54.829Z,3.75
2023-04-08T02:37:21.626Z,4.75
2023-04-08T02:39:48.305Z,4.53
2023-04-08T02:42:14.988Z,4.05
2023-04-08T02:44:41.998Z,3.40
2023-04-08T02:47:08.758Z,4.10
2023-04-08T02:49:35.630Z,3.83
2023-04-08T02:52:02.574Z,3.20
2023-04-08T02:54:29.313Z,2.85
2023-04-08T02:56:56.053Z,3.45
2023-04-08T02:59:22.767Z,3.58
2023-04-08T03:01:49.797Z,4.13
2023-04-08T03:04:16.541Z,3.65
2023-04-08T03:06:43.273Z,4.85
2023-04-08T03:09:10.013Z,3.40
2023-04-08T03:11:36.674Z,3.50
2023-04-08T03:14:03.380Z,3.58
2023-04-08T03:16:30.569Z,3.83
2023-04-08T03:18:57.596Z,3.40
2023-04-08T03:21:24.761Z,3.55
2023-04-08T03:23:51.518Z,5.03
2023-04-08T03:26:18.259Z,3.75
2023-04-08T03:28:44.968Z,4.95
2023-04-08T03:31:11.776Z,4.28
2023-04-08T03:33:38.480Z,5.47
2023-04-08T03:36:06.768Z,3.92
2023-04-08T03:38:33.525Z,3.25
2023-04-08T03:41:00.284Z,3.95
2023-04-08T03:43:27.633Z,4.18
2023-04-08T03:45:55.456Z,3.92
2023-04-08T03:48:22.753Z,4.50
2023-04-08T03:50:49.519Z,5.10
2023-04-08T03:53:16.199Z,4.05
2023-04-08T03:55:42.897Z,4.22
2023-04-08T03:58:09.609Z,4.40
2023-04-08T04:00:36.758Z,4.20
2023-04-08T04:03:03.739Z,3.65
2023-04-08T04:05:30.703Z,4.20
2023-04-08T04:07:58.470Z,3.90
2023-04-08T04:10:25.357Z,4.75
2023-04-08T04:12:52.438Z,4.22
2023-04-08T04:15:19.201Z,3.90
2023-04-08T04:17:48.457Z,4.10
2023-04-08T04:20:15.485Z,3.47
2023-04-08T04:22:42.241Z,4.28
2023-04-08T04:25:09.475Z,3.78
2023-04-08T04:27:36.839Z,5.18
2023-04-08T04:30:04.808Z,4.53
2023-04-08T04:32:31.573Z,4.22
2023-04-08T04:34:58.445Z,4.28
2023-04-08T04:37:26.361Z,3.47
2023-04-08T04:39:53.149Z,4.43
2023-04-08T04:42:19.926Z,3.70
2023-04-08T04:44:46.707Z,4.50
2023-04-08T04:47:13.403Z,3.67
2023-04-08T04:49:40.300Z,4.30
2023-04-08T04:52:07.507Z,4.15
2023-04-08T04:54:34.196Z,4.50
2023-04-08T04:57:01.027Z,3.85
2023-04-08T04:59:27.829Z,3.78
2023-04-08T05:01:57.681Z,3.95
2023-04-08T05:04:25.425Z,6.07
2023-04-08T05:06:52.505Z,4.82
2023-04-08T05:09:19.191Z,4.60
2023-04-08T05:11:46.049Z,5.10
2023-04-08T05:14:12.740Z,4.03
2023-04-08T05:16:39.540Z,5.10
2023-04-08T05:19:06.243Z,3.90
2023-04-08T05:21:33.041Z,4.25
2023-04-08T05:23:59.763Z,3.03
2023-04-08T05:26:26.455Z,5.22
2023-04-08T05:28:53.140Z,4.30
2023-04-08T05:31:20.688Z,4.40
2023-04-08T05:33:47.863Z,4.53
2023-04-08T05:36:14.859Z,3.95
2023-04-08T05:38:44.291Z,3.95
2023-04-08T05:41:11.440Z,5.13
2023-04-08T05:43:38.189Z,4.05
2023-04-08T05:46:09.532Z,3.72
2023-04-08T05:48:36.635Z,3.63
2023-04-08T05:51:03.576Z,5.43
2023-04-08T05:53:30.300Z,4.70
2023-04-08T05:55:56.998Z,3.92
2023-04-08T05:58:23.685Z,4.90
2023-04-08T06:00:50.364Z,4.78
2023-04-08T06:03:20.253Z,5.30
2023-04-08T06:05:47.440Z,4.65
2023-04-08T06:08:14.213Z,4.80
2023-04-08T06:10:40.984Z,5.40
2023-04-08T06:13:07.781Z,5.75
2023-04-08T06:15:34.539Z,5.43
2023-04-08T06:18:01.425Z,5.40
2023-04-08T06:20:28.318Z,3.80
2023-04-08T06:22:55.216Z,4.63
2023-04-08T06:25:22.039Z,3.42
2023-04-08T06:27:48.768Z,3.70
2023-04-08T06:30:16.521Z,5.05
2023-04-08T06:32:43.344Z,3.95
2023-04-08T06:35:10.143Z,4.30
2023-04-08T06:37:38.718Z,4.07
2023-04-08T06:40:06.747Z,4.75
2023-04-08T06:42:33.564Z,5.18
2023-04-08T06:45:00.413Z,5.05
2023-04-08T06:47:27.729Z,4.00
2023-04-08T06:49:54.569Z,5.50
2023-04-08T06:52:21.543Z,3.88
2023-04-08T06:54:48.298Z,3.63
2023-04-08T06:57:15.113Z,3.90
2023-04-08T06:59:41.846Z,4.32
2023-04-08T07:02:08.628Z,4.38
2023-04-08T07:04:35.572Z,3.88
2023-04-08T07:07:02.314Z,3.88
2023-04-08T07:09:29.008Z,4.05
2023-04-08T07:11:55.836Z,4.80
2023-04-08T07:14:22.552Z,4.20
2023-04-08T07:16:49.391Z,5.75
2023-04-08T07:19:16.268Z,5.53
2023-04-08T07:21:43.026Z,5.55
2023-04-08T07:24:09.722Z,5.90
2023-04-08T07:26:36.455Z,5.93
2023-04-08T07:29:03.183Z,5.00
2023-04-08T07:31:29.885Z,4.38
2023-04-08T07:33:56.775Z,4.13
2023-04-08T07:36:23.503Z,4.00
2023-04-08T07:38:50.585Z,4.25
2023-04-08T07:41:17.500Z,3.38
2023-04-08T07:43:44.252Z,3.70
2023-04-08T07:46:10.960Z,3.88
2023-04-08T07:48:37.941Z,3.80
2023-04-08T07:51:08.531Z,4.80
2023-04-08T07:56:10.319Z,3.65
2023-04-08T07:58:37.140Z,3.30
2023-04-08T08:01:03.953Z,3.65
2023-04-08T08:03:33.247Z,3.05
2023-04-08T08:06:00.768Z,3.05
2023-04-08T08:08:27.473Z,2.53
2023-04-08T08:10:54.169Z,3.35
2023-04-08T08:13:22.171Z,2.75
2023-04-08T08:15:53.533Z,3.78
2023-04-08T08:18:21.032Z,2.25
2023-04-08T08:20:47.743Z,2.53
2023-04-08T08:23:14.386Z,1.70
2023-04-08T08:25:41.153Z,3.30
2023-04-08T08:28:07.981Z,3.58
2023-04-08T08:30:34.638Z,2.78
2023-04-08T08:33:01.657Z,3.05
2023-04-08T08:35:28.389Z,3.03
2023-04-08T08:37:55.072Z,3.60
2023-04-08T08:40:21.835Z,4.55
2023-04-08T08:42:52.446Z,5.50
2023-04-08T08:45:21.964Z,3.72
2023-04-08T08:47:50.974Z,4.28
2023-04-08T08:50:18.701Z,3.53
2023-04-08T08:52:50.318Z,3.70
2023-04-08T08:55:36.274Z,2.60
2023-04-08T08:58:10.163Z,3.90
2023-04-08T09:00:42.468Z,3.65
2023-04-08T09:03:19.902Z,2.90
2023-04-08T09:05:56.960Z,3.25
2023-04-08T09:08:31.370Z,3.63
2023-04-08T09:11:17.453Z,3.08
2023-04-08T09:13:45.618Z,2.80
2023-04-08T09:16:18.225Z,2.55
2023-04-08T09:18:47.152Z,2.90
2023-04-08T09:21:15.458Z,2.47
2023-04-08T09:23:43.402Z,2.70
2023-04-08T09:26:10.998Z,2.35
2023-04-08T09:28:38.414Z,3.35
2023-04-08T09:31:27.769Z,2.63
2023-04-08T09:33:59.124Z,1.30
2023-04-08T09:36:29.524Z,1.77
2023-04-08T09:38:56.716Z,3.17
2023-04-08T09:41:24.425Z,2.03
2023-04-08T09:43:54.747Z,1.52
2023-04-08T09:46:45.955Z,2.42
2023-04-08T09:49:27.975Z,2.13
2023-04-08T09:52:16.558Z,2.53
2023-04-08T09:55:06.947Z,2.20
2023-04-08T09:57:55.675Z,1.45
2023-04-08T10:00:28.759Z,3.05
2023-04-08T10:03:11.858Z,2.67
2023-04-08T10:05:41.787Z,2.38
2023-04-08T10:08:08.728Z,1.90
2023-04-08T10:10:39.702Z,1.92
2023-04-08T10:13:08.054Z,2.13
2023-04-08T10:15:37.430Z,1.67
2023-04-08T10:18:07.140Z,2.08
2023-04-08T10:20:36.642Z,2.10
2023-04-08T10:23:07.722Z,1.67
2023-04-08T10:25:38.762Z,1.73
2023-04-08T10:28:11.785Z,2.15
2023-04-08T10:30:42.350Z,1.58
2023-04-08T10:33:15.534Z,1.80
2023-04-08T10:36:08.572Z,2.25
2023-04-08T10:41:02.639Z,3.22
2023-04-08T10:43:37.211Z,2.38
2023-04-08T10:46:04.963Z,2.78
2023-04-08T10:48:31.966Z,2.20
2023-04-08T10:51:00.771Z,3.00
2023-04-08T10:53:39.229Z,2.15
2023-04-08T10:56:18.655Z,2.78
2023-04-08T10:58:54.192Z,2.78
2023-04-08T11:01:21.389Z,1.92
2023-04-08T11:03:49.195Z,1.60
2023-04-08T11:06:17.537Z,2.53
2023-04-08T11:08:44.861Z,2.42
2023-04-08T11:11:13.441Z,2.58
2023-04-08T11:13:48.705Z,2.70
2023-04-08T11:16:21.591Z,2.38
2023-04-08T11:18:52.208Z,2.50
2023-04-08T11:21:19.695Z,2.70
2023-04-08T11:23:58.426Z,2.85
2023-04-08T11:26:25.676Z,2.60
2023-04-08T11:28:53.759Z,2.30
2023-04-08T11:31:24.665Z,1.77
2023-04-08T11:33:57.187Z,2.17
2023-04-08T11:36:27.646Z,2.47
2023-04-08T11:39:04.305Z,2.58
2023-04-08T11:41:50.154Z,4.10
2023-04-08T11:44:17.697Z,2.33
2023-04-08T11:46:55.550Z,1.83
2023-04-08T11:49:51.534Z,1.70
2023-04-08T11:52:19.435Z,1.75
2023-04-08T11:54:49.400Z,2.05
2023-04-08T11:57:33.051Z,1.17
2023-04-08T12:00:01.057Z,1.70
2023-04-08T12:02:28.451Z,1.83
2023-04-08T12:04:56.196Z,2.13
2023-04-08T12:07:23.838Z,2.28
2023-04-08T12:09:51.303Z,2.15
2023-04-08T12:12:18.712Z,2.47
2023-04-08T12:14:48.697Z,2.00
2023-04-08T12:17:18.590Z,2.10
2023-04-08T12:19:48.927Z,2.30
2023-04-08T12:22:19.404Z,1.48
2023-04-08T12:24:47.339Z,2.28
2023-04-08T12:27:14.292Z,2.10
2023-04-08T12:29:50.351Z,1.98
2023-04-08T12:32:20.351Z,2.05
2023-04-08T12:34:58.302Z,1.17
2023-04-08T12:37:31.491Z,1.83
2023-04-08T12:39:59.161Z,1.23
2023-04-08T12:42:34.965Z,1.63
2023-04-08T12:45:03.892Z,2.00
2023-04-08T12:47:31.985Z,1.33
2023-04-08T12:50:05.222Z,1.75
2023-04-08T12:52:33.485Z,1.90
2023-04-08T12:55:03.458Z,1.73
2023-04-08T12:57:33.592Z,1.80
2023-04-08T13:00:04.212Z,2.55
2023-04-08T13:02:32.255Z,2.08
2023-04-08T13:04:59.490Z,1.58
2023-04-08T13:07:26.949Z,1.92
2023-04-08T13:10:07.523Z,1.65
2023-04-08T13:12:40.415Z,1.58
2023-04-08T13:15:11.216Z,1.92
2023-04-08T13:17:38.045Z,2.30
2023-04-08T13:20:20.982Z,2.03
2023-04-08T13:22:55.981Z,1.90
2023-04-08T13:25:23.379Z,1.98
2023-04-08T13:27:50.406Z,2.65
2023-04-08T13:30:17.473Z,2.22
2023-04-08T13:32:47.987Z,2.00
2023-04-08T13:35:17.911Z,2.22
2023-04-08T13:37:45.053Z,2.38
2023-04-08T13:40:12.312Z,1.83
2023-04-08T13:42:39.611Z,2.95
2023-04-08T13:45:07.363Z,1.98
2023-04-08T13:47:37.207Z,1.05
2023-04-08T13:50:05.494Z,1.50
2023-04-08T13:52:32.557Z,1.27
2023-04-08T13:55:02.112Z,1.85
2023-04-08T13:57:28.831Z,1.95
2023-04-08T13:59:55.547Z,1.60
2023-04-08T14:02:23.301Z,1.40
2023-04-08T14:04:50.175Z,1.42
2023-04-08T14:07:17.091Z,1.48
2023-04-08T14:09:43.900Z,1.45
2023-04-08T14:12:10.872Z,1.52
2023-04-08T14:14:37.941Z,2.60
2023-04-08T14:17:04.679Z,1.65
2023-04-08T14:19:32.132Z,2.00
2023-04-08T14:22:05.713Z,1.50
2023-04-08T14:24:32.990Z,1.42
2023-04-08T14:27:00.308Z,1.58
2023-04-08T14:29:27.783Z,1.73
2023-04-08T14:31:54.922Z,1.92
2023-04-08T14:34:25.887Z,1.58
2023-04-08T14:36:56.076Z,2.03
2023-04-08T14:39:25.340Z,2.10
2023-04-08T14:41:52.508Z,1.98
2023-04-08T14:44:24.328Z,2.22
2023-04-08T14:46:58.249Z,1.60
2023-04-08T14:49:24.896Z,1.20
2023-04-08T14:51:53.222Z,2.53
2023-04-08T14:54:20.305Z,2.03
2023-04-08T14:56:47.176Z,2.70
2023-04-08T14:59:13.818Z,1.13
2023-04-08T15:01:41.354Z,1.80
2023-04-08T15:04:08.347Z,1.58
2023-04-08T15:06:35.188Z,1.95
2023-04-08T15:09:01.944Z,1.58
2023-04-08T15:11:28.687Z,1.95
2023-04-08T15:13:55.364Z,1.80
2023-04-08T15:16:22.238Z,2.22
2023-04-08T15:18:49.184Z,1.52
2023-04-08T15:21:16.401Z,1.70
2023-04-08T15:23:43.564Z,1.63
2023-04-08T15:26:11.155Z,2.65
2023-04-08T15:28:38.183Z,2.63
2023-04-08T15:31:05.829Z,1.73
2023-04-08T15:33:32.694Z,2.63
2023-04-08T15:36:04.098Z,2.35
2023-04-08T15:38:33.518Z,2.83
2023-04-08T15:41:00.489Z,1.73
2023-04-08T15:43:27.264Z,1.98
2023-04-08T15:45:54.048Z,1.88
2023-04-08T15:48:20.869Z,2.15
2023-04-08T15:50:47.624Z,1.88
2023-04-08T15:53:14.425Z,1.83
2023-04-08T15:55:41.639Z,2.20
2023-04-08T15:58:14.479Z,2.25
2023-04-08T16:00:41.656Z,2.30
2023-04-08T16:03:12.017Z,1.70
2023-04-08T16:05:41.593Z,2.38
2023-04-08T16:08:08.757Z,1.67
2023-04-08T16:10:35.545Z,1.52
2023-04-08T16:13:02.749Z,1.70
2023-04-08T16:15:29.437Z,2.28
2023-04-08T16:17:56.181Z,2.05
2023-04-08T16:20:22.928Z,1.90
2023-04-08T16:22:50.271Z,2.22
2023-04-08T16:25:17.303Z,2.15
2023-04-08T16:27:44.023Z,1.77
2023-04-08T16:30:11.261Z,2.10
2023-04-08T16:32:38.113Z,1.60
2023-04-08T16:35:05.514Z,1.95
2023-04-08T16:37:33.171Z,2.25
2023-04-08T16:39:59.946Z,2.70
2023-04-08T16:42:26.733Z,2.08
2023-04-08T16:44:57.870Z,1.77
2023-04-08T16:47:24.672Z,2.80
2023-04-08T16:49:52.896Z,2.90
2023-04-08T16:52:19.591Z,2.35
2023-04-08T16:54:46.287Z,2.80
2023-04-08T16:57:13.031Z,4.28
2023-04-08T16:59:39.714Z,3.67
2023-04-08T17:02:06.842Z,5.22
2023-04-08T17:04:33.620Z,4.95
2023-04-08T17:07:00.379Z,5.22
2023-04-08T17:09:27.420Z,5.93
2023-04-08T17:11:55.590Z,3.22
2023-04-08T17:14:22.329Z,3.83
2023-04-08T17:16:49.280Z,2.53
2023-04-08T17:19:16.245Z,3.33
2023-04-08T17:21:43.014Z,5.25
2023-04-08T17:24:09.693Z,7.57
2023-04-08T17:26:36.603Z,3.95
2023-04-08T17:29:03.504Z,2.45
2023-04-08T17:31:30.213Z,2.25
2023-04-08T17:33:57.034Z,2.20
2023-04-08T17:36:23.879Z,2.03
2023-04-08T17:38:51.306Z,2.47
2023-04-08T17:41:29.899Z,2.38
2023-04-08T17:44:05.944Z,2.13
2023-04-08T17:46:35.608Z,2.33
2023-04-08T17:49:02.343Z,1.52
2023-04-08T17:51:30.204Z,1.55
2023-04-08T17:53:57.349Z,1.67
2023-04-08T17:56:24.678Z,2.08
2023-04-08T17:58:51.569Z,1.92
2023-04-08T18:01:18.537Z,1.90
2023-04-08T18:03:45.420Z,1.55
2023-04-08T18:06:12.174Z,1.42
2023-04-08T18:08:39.029Z,1.85
2023-04-08T18:11:06.109Z,1.70
2023-04-08T18:13:33.134Z,1.15
2023-04-08T18:16:00.120Z,2.25
2023-04-08T18:18:26.988Z,1.65
2023-04-08T18:20:53.663Z,1.80
2023-04-08T18:23:20.519Z,2.53
2023-04-08T18:25:47.914Z,1.90
2023-04-08T18:28:14.686Z,1.13
2023-04-08T18:30:43.150Z,1.77
2023-04-08T18:33:10.001Z,2.22
2023-04-08T18:35:37.036Z,1.60
2023-04-08T18:38:03.792Z,1.20
2023-04-08T18:40:31.371Z,1.30
2023-04-08T18:43:02.107Z,1.63
2023-04-08T18:45:29.463Z,1.80
2023-04-08T18:47:56.389Z,1.63
2023-04-08T18:50:23.841Z,1.23
2023-04-08T18:52:50.596Z,2.05
2023-04-08T18:55:17.452Z,1.40
2023-04-08T18:57:44.695Z,2.67
2023-04-08T19:00:11.772Z,1.85
2023-04-08T19:02:38.697Z,2.38
2023-04-08T19:05:05.975Z,2.88
2023-04-08T19:07:32.667Z,1.58
2023-04-08T19:09:59.398Z,1.30
2023-04-08T19:12:26.648Z,1.70
2023-04-08T19:14:54.143Z,2.15
2023-04-08T19:17:21.014Z,1.85
2023-04-08T19:19:47.766Z,2.08
2023-04-08T19:22:14.491Z,2.67
2023-04-08T19:24:42.031Z,2.38
2023-04-08T19:27:08.883Z,2.50
2023-04-08T19:29:35.848Z,2.10
2023-04-08T19:32:04.175Z,2.47
2023-04-08T19:34:31.005Z,3.33
2023-04-08T19:36:57.748Z,2.92
2023-04-08T19:39:26.674Z,3.45
2023-04-08T19:41:54.804Z,2.67
2023-04-08T19:44:21.557Z,3.67
2023-04-08T19:46:48.350Z,4.35
2023-04-08T19:49:15.554Z,3.60
2023-04-08T19:51:42.264Z,3.53
2023-04-08T19:54:08.951Z,3.15
2023-04-08T19:56:35.673Z,3.15
2023-04-08T19:59:02.454Z,3.28
2023-04-08T20:01:29.495Z,4.40
2023-04-08T20:03:56.386Z,2.90
2023-04-08T20:06:23.210Z,4.07
2023-04-08T20:08:52.322Z,4.10
2023-04-08T20:11:19.803Z,3.47
2023-04-08T20:13:47.626Z,3.70
2023-04-08T20:16:14.560Z,3.45
2023-04-08T20:18:41.408Z,3.25
2023-04-08T20:21:10.147Z,3.20
2023-04-08T20:23:40.247Z,4.20
2023-04-08T20:26:07.196Z,5.10
2023-04-08T20:28:33.857Z,4.20
2023-04-08T20:31:01.428Z,4.57
2023-04-08T20:33:28.228Z,4.50
2023-04-08T20:35:57.147Z,4.03
2023-04-08T20:38:24.907Z,5.22
2023-04-08T20:40:51.611Z,3.75
2023-04-08T20:43:18.292Z,5.05
2023-04-08T20:45:45.002Z,4.53
2023-04-08T20:48:11.784Z,4.90
2023-04-08T20:50:38.641Z,3.95
2023-04-08T20:53:05.315Z,4.65
2023-04-08T20:55:31.980Z,4.00
2023-04-08T20:58:00.436Z,5.78
2023-04-08T21:00:27.096Z,4.65
2023-04-08T21:02:53.847Z,6.05
2023-04-08T21:05:20.660Z,5.47
2023-04-08T21:07:47.387Z,5.80
2023-04-08T21:10:14.337Z,5.35
2023-04-08T21:12:41.033Z,5.88
2023-04-08T21:15:08.271Z,5.55
2023-04-08T21:17:35.270Z,7.05
2023-04-08T21:20:02.069Z,5.70
2023-04-08T21:22:29.482Z,6.93
2023-04-08T21:24:59.003Z,8.02
2023-04-08T21:27:25.712Z,7.75
2023-04-08T21:29:52.682Z,16.52
2023-04-08T21:32:19.673Z,9.75
2023-04-08T21:34:46.898Z,9.80
2023-04-08T21:37:13.593Z,9.13
2023-04-08T21:39:40.366Z,8.57
2023-04-08T21:42:07.171Z,9.05
2023-04-08T21:44:33.903Z,8.20
2023-04-08T21:47:02.006Z,7.90
2023-04-08T21:49:32.254Z,9.55
2023-04-08T21:51:58.939Z,8.70
2023-04-08T21:54:25.615Z,7.60
2023-04-08T21:56:52.407Z,9.00
2023-04-08T21:59:19.937Z,8.98
2023-04-08T22:01:46.717Z,8.93
2023-04-08T22:04:13.591Z,7.47
2023-04-08T22:06:40.416Z,7.45
2023-04-08T22:09:07.284Z,9.25
2023-04-08T22:11:34.181Z,8.32
2023-04-08T22:14:01.081Z,9.85
2023-04-08T22:16:27.795Z,9.43
2023-04-08T22:18:54.694Z,9.18
2023-04-08T22:21:21.642Z,10.00
2023-04-08T22:23:48.338Z,9.10
2023-04-08T22:26:15.901Z,9.43
2023-04-08T22:28:42.706Z,8.80
2023-04-08T22:31:13.501Z,8.60
2023-04-08T22:33:40.357Z,7.88
2023-04-08T22:36:07.508Z,8.45
2023-04-08T22:38:34.284Z,9.32
2023-04-08T22:41:01.040Z,9.40
2023-04-08T22:43:27.836Z,13.32
2023-04-08T22:45:54.703Z,10.18
2023-04-08T22:48:21.553Z,10.02
2023-04-08T22:50:48.295Z,10.13
2023-04-08T22:53:15.025Z,10.40
2023-04-08T22:55:41.738Z,11.10
2023-04-08T22:58:08.401Z,11.05
2023-04-08T23:00:35.315Z,11.73
2023-04-08T23:03:04.677Z,13.00
2023-04-08T23:05:31.691Z,11.25
2023-04-08T23:07:58.404Z,10.95
2023-04-08T23:10:25.299Z,10.73
2023-04-08T23:12:52.117Z,12.07
2023-04-08T23:15:18.811Z,10.02
2023-04-08T23:17:45.547Z,10.45
2023-04-08T23:20:12.639Z,11.02
2023-04-08T23:22:39.366Z,9.75
2023-04-08T23:25:06.707Z,12.30
2023-04-08T23:27:33.496Z,9.57
2023-04-08T23:30:05.614Z,10.88
2023-04-08T23:32:33.557Z,11.68
2023-04-08T23:35:01.090Z,13.18
2023-04-08T23:37:28.786Z,12.88
2023-04-08T23:39:55.704Z,10.90
2023-04-08T23:42:27.028Z,12.30
2023-04-08T23:44:54.834Z,11.27
2023-04-08T23:47:21.839Z,11.57
2023-04-08T23:49:48.636Z,12.38
2023-04-08T23:52:15.735Z,10.63
2023-04-08T23:54:42.412Z,10.18
2023-04-08T23:57:09.097Z,11.45
2023-04-08T23:59:35.855Z,11.02
